Latest Weather Observations for Tunnack

IDT60801

Issued at 11:31 pm EDT Saturday 13 February 2016 (issued every 30 minutes, with the page automatically refreshed every 10 minutes)

About weather observations | Map of weather stations | Latest weather observations for TAS | Other Formats
Station Details ID: 094195 Name: TUNNACK FIRE STATION Lat: -42.45 Lon: 147.46 Height: 461.5 m
Data from the previous 72 hours. | See also: Recent months at Tunnack
Date/Time
EDT
Temp
°C
App
Temp
°C
Dew
Point
Rel
Hum
%
Delta-T
°C
Wind Press
QNH
hPa
Press
MSL
hPa
Rain
since 9 am
mm
Dir
 
Spd
km/h
Gust
km/h
Spd
kts
Gust
kts
13/11:30pm 14.2 12.4 7.9 66 3.2 WNW 7 13 4 7 1003.8 1002.8 0.0
13/11:00pm 14.8 11.6 8.5 66 3.3 W 15 24 8 13 1003.9 1002.9 0.0
13/10:30pm 16.3 11.7 8.3 59 4.2 W 22 37 12 20 1004.0 1003.0 0.0
13/10:00pm 15.9 13.0 9.8 67 3.3 W 15 28 8 15 1003.8 1002.8 0.0
13/09:30pm 16.6 13.0 10.5 67 3.3 W 20 32 11 17 1003.6 1002.6 0.0
13/09:00pm 18.4 13.7 10.5 60 4.4 W 26 33 14 18 1003.1 1002.2 0.0
13/08:49pm 19.1 15.3 9.9 55 5.0 WSW 20 39 11 21 1002.8 1001.8 0.0
13/08:30pm 19.4 17.5 9.0 51 5.6 W 9 13 5 7 1002.5 1001.5 0.0
13/08:00pm 20.4 17.6 8.7 47 6.3 WSW 13 19 7 10 1002.3 1001.3 0.0
13/07:30pm 21.7 18.0 7.9 41 7.4 WSW 17 30 9 16 1002.0 1001.0 0.0
13/07:00pm 23.0 18.3 7.9 38 8.2 WSW 22 32 12 17 1001.9 1000.9 0.0
13/06:30pm 23.6 20.6 9.2 40 7.9 SW 15 24 8 13 1001.9 1000.9 0.0
13/06:00pm 23.1 17.9 8.8 40 7.8 W 26 39 14 21 1001.9 1000.9 0.0
13/05:30pm 24.5 19.8 9.3 38 8.4 WSW 24 35 13 19 1001.7 1000.7 0.0
13/05:00pm 25.7 21.4 9.5 36 9.1 WSW 22 35 12 19 1001.5 1000.5 0.0
13/04:30pm 26.3 22.3 10.5 37 9.0 WSW 22 35 12 19 1001.4 1000.4 0.0
13/04:00pm 26.5 22.4 8.0 31 10.2 SW 19 32 10 17 1001.4 1000.4 0.0
13/03:30pm 26.8 23.3 8.7 32 10.1 SW 17 28 9 15 1001.5 1000.5 0.0
13/03:00pm 26.3 24.3 10.0 36 9.3 NNW 11 20 6 11 1001.9 1000.9 0.0
13/02:30pm 26.0 22.9 7.1 30 10.2 WNW 13 22 7 12 1002.2 1001.2 0.0
13/02:00pm 25.5 23.6 10.5 39 8.6 NNE 11 17 6 9 1002.5 1001.5 0.0
13/01:30pm 24.0 21.6 9.9 41 7.9 NW 13 28 7 15 1003.1 1002.2 0.0
13/01:00pm 22.5 18.2 10.9 48 6.6 N 24 33 13 18 1003.5 1002.5 0.0
13/12:30pm 22.5 19.2 10.9 48 6.6 NNW 19 30 10 16 1004.0 1003.0 0.0
13/12:00pm 22.7 19.5 12.0 50 6.2 N 20 32 11 17 1004.5 1003.5 0.0
13/11:30am 21.5 18.4 12.1 55 5.4 N 20 32 11 17 1004.8 1003.8 0.0
13/11:00am 20.5 16.9 11.7 57 5.0 NNE 22 32 12 17 1005.3 1004.4 0.0
13/10:30am 19.3 16.6 11.6 61 4.3 N 17 26 9 14 1005.4 1004.5 0.0
13/10:00am 18.0 15.2 9.9 59 4.4 N 15 20 8 11 1005.8 1004.8 0.0
13/09:30am 16.4 14.3 11.3 72 2.8 N 13 19 7 10 1006.3 1005.3 0.0
13/09:00am 15.4 13.2 10.8 74 2.5 N 13 19 7 10 1006.5 1005.5 0.0
13/08:30am 14.5 13.1 10.9 79 1.9 N 9 17 5 9 1006.6 1005.6 0.0
13/08:00am 14.0 13.1 11.3 84 1.5 NNW 7 9 4 5 1006.3 1005.3 0.0
13/07:30am 14.0 10.7 11.5 85 1.4 N 20 30 11 16 1006.2 1005.2 0.0
13/07:00am 13.9 9.8 11.6 86 1.3 N 24 32 13 17 1006.0 1005.0 0.0
13/06:30am 13.4 9.2 11.1 86 1.2 N 24 33 13 18 1005.6 1004.6 0.0
13/06:00am 13.3 9.0 10.7 84 1.4 N 24 32 13 17 1005.7 1004.7 0.0
13/05:30am 13.2 8.9 10.9 86 1.2 N 24 32 13 17 1006.3 1005.3 0.0
13/05:00am 13.3 9.5 11.0 86 1.2 N 22 30 12 16 1006.3 1005.3 0.0
13/04:30am 13.5 9.2 10.9 84 1.4 N 24 35 13 19 1006.9 1006.0 0.0
13/04:00am 13.6 8.3 11.1 85 1.4 N 30 37 16 20 1006.8 1005.9 0.0
13/03:30am 13.7 10.3 10.7 82 1.6 N 19 30 10 16 1007.2 1006.3 0.0
13/03:00am 13.8 10.7 10.4 80 1.8 NNW 17 26 9 14 1008.1 1007.1 0.0
13/02:30am 14.0 10.6 11.2 83 1.5 N 20 26 11 14 1008.2 1007.2 0.0
13/02:00am 14.3 10.6 11.5 83 1.5 N 22 28 12 15 1008.7 1007.8 0.0
13/01:30am 14.5 11.2 11.5 82 1.6 N 20 28 11 15 1009.0 1008.1 0.0
13/01:00am 14.9 12.0 10.9 77 2.2 N 17 24 9 13 1009.3 1008.4 0.0
13/12:30am 15.5 13.2 10.5 72 2.7 N 13 19 7 10 1009.8 1008.9 0.0
13/12:00am 16.2 13.1 10.3 68 3.2 N 17 28 9 15 1010.0 1009.1 0.0
 
Date/Time
EDT
Temp
°C
App
Temp
°C
Dew
Point
Rel
Hum
%
Delta-T
°C
Wind Press
QNH
hPa
Press
MSL
hPa
Rain
since 9 am
mm
Dir
 
Spd
km/h
Gust
km/h
Spd
kts
Gust
kts
12/11:30pm 16.6 14.4 10.7 68 3.2 NNW 13 20 7 11 1010.4 1009.4 0.0
12/11:00pm 16.9 12.3 11.0 68 3.2 NNW 26 39 14 21 1010.9 1010.0 0.0
12/10:30pm 17.5 13.2 10.9 65 3.6 N 24 37 13 20 1011.1 1010.2 0.0
12/10:00pm 17.8 13.7 10.2 61 4.1 N 22 30 12 16 1011.4 1010.5 0.0
12/09:30pm 17.8 14.3 10.9 64 3.8 N 20 28 11 15 1011.5 1010.6 0.0
12/09:00pm 18.5 15.0 10.1 58 4.6 N 19 26 10 14 1011.5 1010.6 0.0
12/08:30pm 19.1 15.1 9.0 52 5.4 N 20 28 11 15 1011.6 1010.7 0.0
12/08:00pm 19.9 15.0 8.6 48 6.0 N 24 32 13 17 1011.8 1010.9 0.0
12/07:30pm 21.2 15.9 9.8 48 6.3 N 28 39 15 21 1011.7 1010.8 0.0
12/07:00pm 22.2 16.9 10.0 46 6.8 N 28 41 15 22 1011.8 1010.9 0.0
12/06:30pm 20.8 18.8 14.0 65 4.0 NE 17 24 9 13 1012.0 1011.1 0.0
12/06:00pm 20.2 17.9 14.6 70 3.3 ENE 20 32 11 17 1012.1 1011.2 0.0
12/05:30pm 21.1 18.9 14.5 66 3.9 ENE 19 30 10 16 1012.2 1011.3 0.0
12/05:00pm 21.2 18.6 13.9 63 4.3 ENE 20 33 11 18 1012.6 1011.7 0.0
12/04:30pm 21.3 18.8 14.2 64 4.2 ENE 20 33 11 18 1012.9 1012.0 0.0
12/04:00pm 21.6 19.2 14.3 63 4.4 NE 20 32 11 17 1013.4 1012.5 0.0
12/03:30pm 22.7 18.8 10.8 47 6.7 N 22 35 12 19 1014.0 1013.1 0.0
12/03:00pm 23.0 18.1 11.4 48 6.6 N 28 56 15 30 1014.4 1013.6 0.0
12/02:59pm 22.6 17.6 11.0 48 6.6 N 28 56 15 30 1014.3 1013.5 0.0
12/02:30pm 22.3 17.3 11.1 49 6.3 N 28 39 15 21 1014.7 1013.8 0.0
12/02:00pm 21.7 17.1 12.3 55 5.4 N 28 41 15 22 1015.1 1014.2 0.0
12/01:30pm 21.4 16.9 12.5 57 5.1 N 28 41 15 22 1015.5 1014.6 0.0
12/01:00pm 20.0 16.5 12.3 61 4.4 NNE 22 35 12 19 1016.1 1015.2 0.0
12/12:30pm 20.3 18.0 14.2 68 3.6 NNE 19 30 10 16 1016.6 1015.8 0.0
12/12:00pm 19.3 18.1 15.0 76 2.6 NNE 15 22 8 12 1017.3 1016.4 0.0
12/11:30am 17.7 16.8 13.6 77 2.4 NE 11 19 6 10 1017.7 1016.8 0.0
12/11:00am 16.7 15.2 13.2 80 2.0 NE 13 19 7 10 1018.0 1017.1 0.0
12/10:30am 16.4 15.0 13.3 82 1.8 NE 13 19 7 10 1018.3 1017.5 0.0
12/10:00am 15.2 14.5 13.2 88 1.1 ENE 9 13 5 7 1018.7 1017.9 0.0
12/09:30am 14.5 14.1 13.0 91 0.8 NE 7 11 4 6 1018.9 1018.1 0.0
12/09:00am 13.3 12.7 12.4 94 0.5 NNE 7 11 4 6 1019.0 1018.2 6.6
12/08:30am 13.1 12.2 12.5 96 0.3 ENE 9 13 5 7 1018.8 1018.0 6.6
12/08:00am 12.9 11.9 12.4 97 0.3 ENE 9 13 5 7 1018.5 1017.7 6.6
12/07:30am 12.8 12.2 12.3 97 0.3 NE 7 11 4 6 1018.4 1017.6 6.6
12/07:00am 12.7 11.7 12.2 97 0.3 NNE 9 13 5 7 1018.0 1017.1 6.6
12/06:30am 12.7 11.7 12.2 97 0.3 NNE 9 13 5 7 1017.9 1017.0 6.6
12/06:00am 12.5 12.0 12.0 97 0.3 ENE 6 9 3 5 1017.9 1017.0 6.6
12/05:30am 12.6 11.9 12.1 97 0.3 NE 7 13 4 7 1017.8 1016.9 6.6
12/05:00am 12.4 11.7 11.9 97 0.3 ENE 7 11 4 6 1017.9 1017.0 6.6
12/04:30am 12.5 12.0 11.9 96 0.3 ENE 6 9 3 5 1018.0 1017.1 6.6
12/04:00am 12.5 11.3 11.7 95 0.4 ENE 9 13 5 7 1017.9 1017.0 6.6
12/03:30am 12.7 12.0 11.9 95 0.4 NNE 7 11 4 6 1018.2 1017.4 6.6
12/03:00am 12.7 12.0 11.9 95 0.4 E 7 11 4 6 1018.2 1017.4 6.6
12/02:30am 12.8 12.3 11.9 94 0.5 NE 6 9 3 5 1018.4 1017.6 6.6
12/02:00am 12.8 12.3 11.9 94 0.5 ENE 6 9 3 5 1018.6 1017.8 6.6
12/01:30am 12.6 11.4 11.7 94 0.5 ENE 9 13 5 7 1018.7 1017.9 6.6
12/01:00am 12.5 11.3 11.7 95 0.4 ENE 9 11 5 6 1018.9 1018.1 6.4
12/12:30am 12.4 11.6 11.8 96 0.3 E 7 11 4 6 1019.0 1018.2 6.4
12/12:00am 12.4 11.2 11.6 95 0.4 ENE 9 13 5 7 1019.0 1018.2 6.2
 
Date/Time
EDT
Temp
°C
App
Temp
°C
Dew
Point
Rel
Hum
%
Delta-T
°C
Wind Press
QNH
hPa
Press
MSL
hPa
Rain
since 9 am
mm
Dir
 
Spd
km/h
Gust
km/h
Spd
kts
Gust
kts
11/11:30pm 12.5 11.7 11.7 95 0.4 NE 7 9 4 5 1019.3 1018.4 5.8
11/11:00pm 12.5 11.7 11.6 94 0.5 NE 7 11 4 6 1019.4 1018.5 5.4
11/10:30pm 12.7 11.6 11.8 94 0.5 ENE 9 13 5 7 1019.3 1018.4 1.8
11/10:00pm 13.0 11.7 11.4 90 0.9 ENE 9 15 5 8 1019.3 1018.4 0.0
11/09:30pm 13.6 11.4 10.8 83 1.5 ENE 13 22 7 12 1018.9 1018.1 0.0
11/09:00pm 13.9 10.9 10.7 81 1.7 E 17 26 9 14 1018.3 1017.5 0.0
11/08:30pm 14.1 11.8 10.5 79 1.9 ENE 13 20 7 11 1018.1 1017.3 0.0
11/08:00pm 14.3 11.3 10.5 78 2.0 ENE 17 22 9 12 1018.0 1017.1 0.0
11/07:30pm 14.5 10.9 10.7 78 2.0 E 20 28 11 15 1017.5 1016.6 0.0
11/07:00pm 15.4 12.5 11.0 75 2.4 ENE 17 26 9 14 1017.3 1016.4 0.0
11/06:30pm 15.8 12.0 11.0 73 2.6 E 22 32 12 17 1017.1 1016.2 0.0
11/06:00pm 17.1 12.8 10.9 67 3.4 E 24 33 13 18 1016.6 1015.8 0.0
11/05:30pm 17.7 13.8 10.8 64 3.8 E 22 37 12 20 1016.5 1015.7 0.0
11/05:00pm 18.0 13.0 11.1 64 3.8 ESE 28 37 15 20 1016.3 1015.5 0.0
11/04:30pm 17.5 13.5 10.6 64 3.8 SE 22 32 12 17 1016.2 1015.4 0.0
11/04:00pm 19.8 15.3 10.2 54 5.3 NE 24 35 13 19 1015.7 1014.8 0.0
11/03:30pm 20.5 18.0 9.7 50 5.9 NE 13 20 7 11 1015.9 1015.0 0.0
11/03:00pm 22.7 20.6 8.4 40 7.7 W 9 22 5 12 1016.0 1015.1 0.0
11/02:30pm 21.3 18.6 7.2 40 7.4 WNW 11 19 6 10 1016.1 1015.2 0.0
11/02:00pm 20.5 18.3 7.8 44 6.7 WSW 9 17 5 9 1016.3 1015.5 0.0
11/01:30pm 20.4 18.4 7.1 42 6.9 ESE 7 13 4 7 1016.4 1015.6 0.0
11/01:00pm 20.4 17.9 8.1 45 6.5 WNW 11 20 6 11 1016.3 1015.5 0.0
11/12:30pm 19.7 17.7 8.7 49 5.9 NW 9 13 5 7 1016.5 1015.7 0.0
11/12:00pm 18.7 16.8 7.5 48 5.8 N 7 15 4 8 1016.7 1015.9 0.0
11/11:30am 17.2 15.5 8.4 56 4.6 SW 7 11 4 6 1017.1 1016.2 0.0
11/11:00am 16.9 14.7 7.8 55 4.7 SSW 9 15 5 8 1017.2 1016.3 0.0
11/10:30am 16.5 14.5 8.7 60 4.1 W 9 15 5 8 1017.2 1016.3 0.0
11/10:00am 16.0 13.6 8.7 62 3.8 NW 11 17 6 9 1017.2 1016.3 0.0
11/09:30am 15.2 13.3 8.9 66 3.3 NW 9 15 5 8 1017.2 1016.3 0.0
11/09:00am 14.6 13.2 8.8 68 3.0 W 6 11 3 6 1016.8 1016.0 0.0
11/08:30am 13.2 11.9 9.3 77 2.0 WNW 6 9 3 5 1016.6 1015.8 0.0
11/08:00am 11.4 10.0 8.8 84 1.3 NNW 6 9 3 5 1016.5 1015.7 0.0
11/07:30am 9.5 8.3 8.1 91 0.7 ESE 4 7 2 4 1016.2 1015.4 0.0
11/07:00am 7.5 5.6 6.8 95 0.3 ENE 6 7 3 4 1015.8 1014.9 0.0
11/06:30am 7.9 7.2 7.1 95 0.4 CALM 0 0 0 0 1015.5 1014.6 0.0
11/06:00am 7.9 5.8 6.8 93 0.5 E 7 9 4 5 1015.2 1014.3 0.0
11/05:30am 9.2 8.7 7.8 91 0.7 CALM 0 0 0 0 1014.9 1014.0 0.0
11/05:00am 10.8 8.9 8.9 88 1.0 WSW 9 11 5 6 1014.7 1013.8 0.0
11/04:30am 10.7 8.6 8.1 84 1.3 WSW 9 11 5 6 1014.4 1013.6 0.0
11/04:00am 11.9 9.5 8.7 81 1.6 SW 11 15 6 8 1014.3 1013.5 0.0
11/03:30am 12.5 9.8 9.0 79 1.8 SW 13 19 7 10 1014.3 1013.5 0.0
11/03:00am 12.4 10.1 9.1 80 1.7 WSW 11 15 6 8 1014.3 1013.5 0.0
11/02:30am 11.9 9.9 8.7 81 1.6 W 9 13 5 7 1014.3 1013.5 0.0
11/02:00am 12.8 10.1 9.1 78 1.9 W 13 17 7 9 1014.2 1013.3 0.0
11/01:30am 12.7 10.0 8.8 77 2.0 WSW 13 19 7 10 1014.3 1013.5 0.0
11/01:00am 12.9 9.5 9.0 77 2.0 W 17 24 9 13 1014.3 1013.5 0.0
11/12:30am 13.2 10.2 9.3 77 2.0 WSW 15 22 8 12 1014.2 1013.3 0.0
11/12:00am 13.1 10.5 9.2 77 2.0 WSW 13 17 7 9 1014.2 1013.3 0.0

Other Formats:

Comma delimited format used in spreadsheet applications
http://www.bom.gov.au/fwo/IDT60801/IDT60801.94960.axf

JavaScript Object Notation format (JSON) in row-major order
http://www.bom.gov.au/fwo/IDT60801/IDT60801.94960.json